Time;durP1;ratioP1;P1;durP2;ratioP2;P2;SDS_P1;SDS_P2;PMS_P1;PMS_P2;Temp;Humidity;BMP_temperature;BMP_pressure;BME280_temperature;BME280_humidity;BME280_pressure;Samples;Min_cycle;Max_cycle;Signal;HPM_P1;HPM_P2
2022/06/27 00:02:06;;;;;;;10.48;6.85;;;;;;;16.82;82.05;101349.34;5051415;28;20025;-82
2022/06/27 00:04:31;;;;;;;10.07;7.43;;;;;;;16.86;82.06;101345.47;5052781;28;20120;-82
2022/06/27 00:06:56;;;;;;;9.20;7.57;;;;;;;16.87;82.18;101343.63;5052630;28;20055;-81
2022/06/27 00:09:21;;;;;;;11.65;7.63;;;;;;;16.86;81.79;101342.78;5049251;28;20036;-82
2022/06/27 00:11:47;;;;;;;9.13;7.25;;;;;;;16.86;82.35;101344.59;5045333;28;20059;-81
2022/06/27 00:14:12;;;;;;;9.63;7.10;;;;;;;16.86;81.85;101342.78;5048892;28;20133;-82
2022/06/27 00:16:37;;;;;;;11.70;7.00;;;;;;;16.86;82.22;101342.78;5049061;28;20036;-82
2022/06/27 00:19:03;;;;;;;10.00;8.00;;;;;;;16.85;81.45;101348.28;5047676;28;20087;-82
2022/06/27 00:21:28;;;;;;;11.82;8.07;;;;;;;16.81;81.64;101354.81;5040503;28;20079;-83
2022/06/27 00:23:54;;;;;;;10.35;8.32;;;;;;;16.82;80.84;101362.78;5047625;28;20028;-82
2022/06/27 00:26:19;;;;;;;11.70;9.20;;;;;;;16.82;81.18;101362.78;5049775;28;20480;-83
2022/06/27 00:28:44;;;;;;;10.15;8.93;;;;;;;16.81;81.50;101374.50;5046161;28;20025;-83
2022/06/27 00:31:10;;;;;;;11.50;9.30;;;;;;;16.78;80.94;101366.63;5044185;28;20017;-83
2022/06/27 00:33:35;;;;;;;13.38;9.85;;;;;;;16.80;80.59;101372.75;5046864;28;20068;-83
2022/06/27 00:36:00;;;;;;;11.98;9.75;;;;;;;16.75;80.66;101366.84;5045820;28;20021;-83
2022/06/27 00:38:26;;;;;;;13.52;9.73;;;;;;;16.77;81.32;101366.75;5047345;28;20446;-83
2022/06/27 00:40:51;;;;;;;13.80;10.00;;;;;;;16.75;81.17;101371.34;5045073;28;20041;-83
2022/06/27 00:43:17;;;;;;;10.73;9.38;;;;;;;16.73;81.30;101367.94;5046243;28;20128;-83
2022/06/27 00:45:42;;;;;;;14.40;9.85;;;;;;;16.77;81.16;101380.19;5045403;28;20028;-82
2022/06/27 00:48:08;;;;;;;11.60;9.45;;;;;;;16.73;81.27;101378.69;5044171;28;20079;-83
2022/06/27 00:50:33;;;;;;;12.73;9.90;;;;;;;16.71;81.48;101381.41;5043762;28;20039;-82
2022/06/27 00:52:58;;;;;;;11.82;9.73;;;;;;;16.73;81.33;101384.91;5047048;28;20474;-83
2022/06/27 00:55:24;;;;;;;14.88;10.00;;;;;;;16.73;82.00;101395.66;5048712;28;20449;-83
2022/06/27 00:57:50;;;;;;;14.35;9.55;;;;;;;16.71;81.96;101386.78;5038514;28;20034;-84
2022/06/27 01:00:16;;;;;;;12.98;9.75;;;;;;;16.75;82.10;101374.03;5035279;28;20049;-82
2022/06/27 01:02:42;;;;;;;13.55;9.13;;;;;;;16.72;82.44;101376.91;5044651;28;20037;-83
2022/06/27 01:05:08;;;;;;;13.85;9.75;;;;;;;16.73;82.27;101376.84;5042285;28;20035;-82
2022/06/27 01:07:34;;;;;;;12.75;9.23;;;;;;;16.72;82.13;101374.22;5044911;28;20430;-83
2022/06/27 01:10:00;;;;;;;12.32;9.57;;;;;;;16.73;82.73;101376.00;5043573;28;20106;-82
2022/06/27 01:12:26;;;;;;;13.65;9.60;;;;;;;16.73;82.18;101384.91;5046849;28;20391;-83
2022/06/27 01:14:51;;;;;;;13.60;9.93;;;;;;;16.67;82.89;101374.53;5045778;28;20041;-82
2022/06/27 01:17:17;;;;;;;14.20;10.93;;;;;;;16.66;82.34;101378.19;5043799;28;20096;-82
2022/06/27 01:19:42;;;;;;;12.95;10.32;;;;;;;16.67;82.59;101382.59;5045973;28;20110;-83
2022/06/27 01:22:09;;;;;;;12.90;10.38;;;;;;;16.65;82.42;101384.53;5044049;28;20041;-84
2022/06/27 01:24:34;;;;;;;14.05;10.32;;;;;;;16.68;82.19;101387.03;5050612;28;20016;-82
2022/06/27 01:27:00;;;;;;;14.35;10.75;;;;;;;16.67;82.31;101369.16;5069662;28;20033;-82
2022/06/27 01:29:26;;;;;;;14.30;10.50;;;;;;;16.68;82.23;101370.91;5065423;28;20025;-83
2022/06/27 01:31:51;;;;;;;12.25;10.50;;;;;;;16.66;81.70;101372.81;5053843;28;20126;-83
2022/06/27 01:34:17;;;;;;;15.02;10.95;;;;;;;16.65;81.92;101369.28;5052537;28;20029;-83
2022/06/27 01:36:43;;;;;;;15.55;11.00;;;;;;;16.64;82.08;101356.81;5049366;28;20034;-83
2022/06/27 01:39:10;;;;;;;15.30;10.90;;;;;;;16.60;82.08;101346.38;5035814;28;20078;-82
2022/06/27 01:41:37;;;;;;;14.52;11.13;;;;;;;16.61;82.53;101348.09;5044676;28;20042;-82
2022/06/27 01:44:03;;;;;;;13.68;10.68;;;;;;;16.58;82.61;101350.97;5048248;28;20128;-83
2022/06/27 01:46:39;;;;;;;13.88;10.77;;;;;;;16.56;82.82;101345.72;5052038;28;20165;-83
2022/06/27 01:49:04;;;;;;;13.57;10.82;;;;;;;16.56;83.25;101334.97;5048179;28;20029;-83
2022/06/27 01:51:30;;;;;;;16.02;11.48;;;;;;;16.56;83.02;101343.03;5045189;28;20029;-83
2022/06/27 01:53:55;;;;;;;12.15;9.68;;;;;;;16.60;83.14;101330.25;5045827;28;20533;-83
2022/06/27 01:56:21;;;;;;;14.02;10.70;;;;;;;16.54;82.94;101342.25;5046678;28;20029;-83
2022/06/27 01:58:46;;;;;;;12.50;10.13;;;;;;;16.58;83.20;101337.53;5046373;28;20437;-83
2022/06/27 02:01:12;;;;;;;14.52;10.85;;;;;;;16.50;83.29;101323.75;5036378;28;20021;-83
2022/06/27 02:03:38;;;;;;;13.43;11.18;;;;;;;16.53;83.19;101339.69;5046762;28;20391;-83
2022/06/27 02:06:04;;;;;;;15.40;10.55;;;;;;;16.58;83.05;101348.28;5042961;28;20036;-83
2022/06/27 02:08:31;;;;;;;12.70;11.23;;;;;;;16.58;82.78;101332.16;5044818;28;20086;-83
2022/06/27 02:10:57;;;;;;;12.43;10.45;;;;;;;16.54;83.13;101317.22;5038830;28;20048;-83
2022/06/27 02:13:23;;;;;;;15.93;10.45;;;;;;;16.56;82.98;101323.38;5041772;28;20390;-83
2022/06/27 02:16:02;;;;;;;12.93;10.30;;;;;;;16.53;82.79;101324.41;5045363;28;20036;-83
2022/06/27 02:18:28;;;;;;;15.68;11.75;;;;;;;16.43;83.57;101310.75;5049113;28;20043;-83
2022/06/27 02:20:54;;;;;;;14.50;10.98;;;;;;;16.44;83.40;101314.31;5048033;28;20029;-82
2022/06/27 02:23:19;;;;;;;12.45;10.52;;;;;;;16.40;83.92;101308.28;5049615;28;20037;-83
2022/06/27 02:25:45;;;;;;;13.10;10.45;;;;;;;16.35;84.10;101298.81;5049435;28;20036;-83
2022/06/27 02:28:12;;;;;;;13.95;10.35;;;;;;;16.38;83.98;101304.81;5044954;28;20433;-83
2022/06/27 02:30:37;;;;;;;14.15;11.38;;;;;;;16.38;84.69;101306.66;5041255;28;20092;-83
2022/06/27 02:33:03;;;;;;;13.90;10.57;;;;;;;16.37;84.70;101305.78;5047393;28;20117;-83
2022/06/27 02:35:29;;;;;;;11.88;9.77;;;;;;;16.36;84.97;101313.97;5044856;28;20032;-83
2022/06/27 02:37:56;;;;;;;12.50;9.40;;;;;;;16.40;85.68;101315.47;5049133;28;20039;-83
2022/06/27 02:40:22;;;;;;;11.38;8.68;;;;;;;16.38;85.97;101310.19;5047953;28;20032;-83
2022/06/27 02:42:51;;;;;;;9.55;8.10;;;;;;;16.38;86.70;101298.59;5048838;28;20041;-83
2022/06/27 02:45:16;;;;;;;10.75;8.77;;;;;;;16.35;86.49;101293.44;5044602;28;20025;-83
2022/06/27 02:47:45;;;;;;;10.57;8.07;;;;;;;16.34;86.62;101292.56;5045233;28;20029;-83
2022/06/27 02:50:11;;;;;;;9.63;8.35;;;;;;;16.32;87.00;101285.59;5046985;28;20036;-83
2022/06/27 02:52:43;;;;;;;10.90;8.05;;;;;;;16.21;87.23;101272.88;5051235;28;20382;-83
2022/06/27 02:55:14;;;;;;;16.00;8.48;;;;;;;16.19;86.93;101281.03;5047826;28;20092;-83
2022/06/27 02:58:02;;;;;;;9.32;8.02;;;;;;;16.16;87.23;101277.69;5046465;28;20030;-83
2022/06/27 03:00:28;;;;;;;13.45;9.00;;;;;;;16.08;87.65;101271.97;5047954;28;20040;-83
2022/06/27 03:02:55;;;;;;;11.85;8.27;;;;;;;16.01;88.50;101274.22;5049401;28;20140;-83
2022/06/27 03:05:20;;;;;;;9.02;7.90;;;;;;;15.96;88.46;101273.66;5044152;28;20017;-83
2022/06/27 03:07:46;;;;;;;12.20;8.02;;;;;;;15.88;89.33;101260.75;5051369;28;20039;-83
2022/06/27 03:10:12;;;;;;;11.27;8.18;;;;;;;15.80;89.39;101254.16;5051755;28;20371;-83
2022/06/27 03:12:38;;;;;;;9.10;7.95;;;;;;;15.71;89.15;101255.63;5064585;28;20470;-82
2022/06/27 03:15:04;;;;;;;10.13;8.15;;;;;;;15.66;89.61;101257.75;5067803;28;20024;-83
2022/06/27 03:17:29;;;;;;;9.90;8.35;;;;;;;15.56;90.16;101249.44;5070176;28;20063;-83
2022/06/27 03:19:56;;;;;;;13.38;9.38;;;;;;;15.51;90.63;101254.25;5057714;28;20035;-83
2022/06/27 03:22:21;;;;;;;11.38;8.20;;;;;;;15.48;91.28;101248.22;5054606;28;20115;-83
2022/06/27 03:24:47;;;;;;;11.10;8.93;;;;;;;15.48;90.86;101258.94;5050097;28;20056;-82
2022/06/27 03:27:12;;;;;;;14.05;8.63;;;;;;;15.48;91.39;101258.94;5051603;28;20481;-82
2022/06/27 03:29:37;;;;;;;11.80;9.27;;;;;;;15.50;91.75;101263.22;5047431;28;20032;-82
2022/06/27 03:32:03;;;;;;;11.20;9.27;;;;;;;15.49;90.87;101255.28;5037929;28;20075;-83
2022/06/27 03:34:29;;;;;;;12.25;8.68;;;;;;;15.48;90.90;101258.94;5049790;28;20113;-83
2022/06/27 03:36:55;;;;;;;10.38;8.90;;;;;;;15.41;90.90;101242.38;5048815;28;20103;-83
2022/06/27 03:39:20;;;;;;;11.32;8.27;;;;;;;15.40;91.13;101252.22;5048216;28;20032;-83
2022/06/27 03:41:45;;;;;;;9.60;8.63;;;;;;;15.34;91.02;101255.31;5037836;28;20073;-83
2022/06/27 03:44:11;;;;;;;14.90;8.18;;;;;;;15.25;91.75;101255.88;5045551;28;20040;-83
2022/06/27 03:46:36;;;;;;;12.30;8.98;;;;;;;15.19;92.03;101258.97;5047446;28;20068;-83
2022/06/27 03:51:47;;;;;;;12.00;8.45;;;;;;;15.06;91.86;101264.25;5043252;28;20529;-83
2022/06/27 03:54:12;;;;;;;12.02;9.30;;;;;;;15.06;92.77;101272.28;5044682;28;20025;-83
2022/06/27 03:56:38;;;;;;;13.05;9.07;;;;;;;15.06;92.70;101264.25;5047364;28;20029;-83
2022/06/27 03:59:03;;;;;;;11.77;9.77;;;;;;;15.06;92.64;101269.63;5044876;28;20508;-83
2022/06/27 04:01:28;;;;;;;12.85;9.93;;;;;;;15.11;92.98;101282.72;5041587;28;20514;-83
2022/06/27 04:03:54;;;;;;;11.40;9.82;;;;;;;15.17;92.82;101288.59;5048063;28;20048;-83
2022/06/27 04:06:19;;;;;;;10.88;8.68;;;;;;;15.23;92.09;101279.28;5044027;28;20025;-83
2022/06/27 04:08:45;;;;;;;16.35;10.10;;;;;;;15.34;92.43;101274.09;5042091;28;20035;-83
2022/06/27 04:11:10;;;;;;;12.52;10.27;;;;;;;15.39;92.24;101277.34;5046398;28;20021;-82
2022/06/27 04:13:35;;;;;;;12.38;10.27;;;;;;;15.41;91.66;101280.78;5045730;28;20025;-83
2022/06/27 04:16:01;;;;;;;12.90;9.70;;;;;;;15.47;91.73;101278.66;5046850;28;20029;-83
2022/06/27 04:18:26;;;;;;;13.30;9.88;;;;;;;15.52;91.67;101269.38;5047965;28;20025;-83
2022/06/27 04:20:51;;;;;;;12.05;10.55;;;;;;;15.63;91.61;101269.53;5044452;28;20036;-83
2022/06/27 04:23:17;;;;;;;12.27;10.18;;;;;;;15.75;90.91;101262.50;5045190;28;20052;-83
2022/06/27 04:25:42;;;;;;;12.73;11.18;;;;;;;15.85;91.07;101250.22;5048020;28;20029;-83
2022/06/27 04:28:08;;;;;;;15.05;11.32;;;;;;;15.96;91.13;101241.44;5046895;28;20115;-83
2022/06/27 04:30:33;;;;;;;12.88;11.07;;;;;;;16.05;89.93;101237.28;5037634;28;20032;-83
2022/06/27 04:32:59;;;;;;;15.35;11.85;;;;;;;16.04;89.94;101232.88;5039332;28;20116;-83
2022/06/27 04:35:25;;;;;;;17.40;11.63;;;;;;;16.02;88.94;101230.31;5044085;28;20466;-83
2022/06/27 04:37:50;;;;;;;13.85;11.80;;;;;;;16.13;88.42;101238.47;5047640;28;20029;-83
2022/06/27 04:40:19;;;;;;;18.35;12.60;;;;;;;16.18;88.13;101235.50;5043954;28;20032;-83
2022/06/27 04:42:44;;;;;;;14.95;12.30;;;;;;;16.23;88.22;101224.44;5041206;28;20045;-83
2022/06/27 04:45:13;;;;;;;15.32;12.38;;;;;;;16.27;87.62;101220.56;5045277;28;20128;-83
2022/06/27 04:47:42;;;;;;;17.50;12.63;;;;;;;16.28;88.16;101215.09;5057885;28;20041;-83
2022/06/27 04:50:12;;;;;;;19.02;13.32;;;;;;;16.28;87.85;101228.53;5048580;28;20076;-83
2022/06/27 04:52:38;;;;;;;17.02;13.93;;;;;;;16.34;87.13;101238.81;5053203;28;20024;-83
2022/06/27 04:55:09;;;;;;;17.15;13.48;;;;;;;16.28;86.65;101225.84;5047506;28;20104;-82
2022/06/27 04:57:39;;;;;;;16.70;13.00;;;;;;;16.35;87.39;101232.50;5041508;28;20037;-83
2022/06/27 05:00:08;;;;;;;21.33;13.82;;;;;;;16.31;87.33;101235.53;5035000;28;20037;-83
2022/06/27 05:02:34;;;;;;;19.30;14.50;;;;;;;16.33;88.31;101239.81;5042424;28;20037;-83
2022/06/27 05:04:59;;;;;;;17.77;13.88;;;;;;;16.29;87.53;101230.22;5035352;28;20390;-82
2022/06/27 05:07:25;;;;;;;18.95;14.88;;;;;;;16.24;87.64;101216.25;5042774;28;20029;-82
2022/06/27 05:09:54;;;;;;;18.45;14.10;;;;;;;16.22;87.82;101218.22;5044624;28;20025;-83
2022/06/27 05:12:19;;;;;;;19.10;14.57;;;;;;;16.12;87.60;101211.72;5045858;28;20029;-82
2022/06/27 05:14:45;;;;;;;18.42;15.90;;;;;;;16.06;88.13;101207.66;5046110;28;20021;-82
2022/06/27 05:17:11;;;;;;;20.63;16.13;;;;;;;16.05;88.50;101205.06;5046959;28;20051;-82
2022/06/27 05:19:36;;;;;;;17.52;14.98;;;;;;;16.03;89.00;101207.00;5043212;28;20029;-82
2022/06/27 05:22:02;;;;;;;20.65;15.32;;;;;;;16.02;89.14;101216.03;5046344;28;20033;-82
2022/06/27 05:24:27;;;;;;;19.92;15.40;;;;;;;16.01;88.92;101222.31;5044422;28;20086;-82
2022/06/27 05:26:54;;;;;;;23.20;15.75;;;;;;;16.06;89.12;101225.59;5039197;28;20471;-83
2022/06/27 05:29:20;;;;;;;18.40;14.68;;;;;;;16.08;89.36;101216.44;5030932;28;20025;-83
2022/06/27 05:31:45;;;;;;;20.02;14.10;;;;;;;16.08;90.07;101220.97;5042051;28;20037;-81
2022/06/27 05:34:10;;;;;;;19.02;14.65;;;;;;;16.11;90.21;101239.56;5044974;28;20057;-82
2022/06/27 05:36:37;;;;;;;18.77;14.45;;;;;;;16.14;89.68;101274.25;5045986;28;20401;-82
2022/06/27 05:39:03;;;;;;;18.65;15.05;;;;;;;16.19;89.67;101302.53;5038887;28;20104;-82
2022/06/27 05:41:29;;;;;;;17.30;14.10;;;;;;;16.30;88.11;101303.63;5045349;28;20515;-81
2022/06/27 05:43:55;;;;;;;20.90;15.38;;;;;;;16.38;88.88;101304.81;5045461;28;20090;-81
2022/06/27 05:46:20;;;;;;;17.98;14.90;;;;;;;16.52;88.33;101313.78;5045230;28;20474;-81
2022/06/27 05:48:46;;;;;;;18.98;14.55;;;;;;;16.56;87.68;101326.03;5042766;28;20029;-81
2022/06/27 05:51:12;;;;;;;15.70;14.07;;;;;;;16.58;87.37;101335.72;5046301;28;20044;-81
2022/06/27 05:53:38;;;;;;;17.85;15.18;;;;;;;16.59;88.12;101350.00;5049575;28;20025;-81
2022/06/27 05:56:05;;;;;;;21.60;16.58;;;;;;;16.58;88.31;101341.09;5048735;28;20029;-81
2022/06/27 05:58:31;;;;;;;18.60;14.73;;;;;;;16.58;87.15;101341.09;5037818;28;20025;-81
2022/06/27 06:00:57;;;;;;;20.38;15.98;;;;;;;16.60;87.52;101341.00;5046963;28;20037;-81
2022/06/27 06:03:22;;;;;;;19.33;15.13;;;;;;;16.60;87.50;101339.16;5045809;28;20025;-81
2022/06/27 06:05:48;;;;;;;19.60;15.80;;;;;;;16.61;87.39;101337.34;5048442;28;20497;-81
2022/06/27 06:08:14;;;;;;;20.27;14.77;;;;;;;16.65;87.64;101344.22;5046387;28;20040;-81
2022/06/27 06:10:40;;;;;;;20.15;14.98;;;;;;;16.69;86.58;101340.38;5049488;28;20099;-81
2022/06/27 06:13:05;;;;;;;17.83;14.68;;;;;;;16.73;86.81;101343.75;5047187;28;20029;-81
2022/06/27 06:15:32;;;;;;;19.17;14.48;;;;;;;16.74;87.13;101332.88;5049776;28;20390;-81
2022/06/27 06:18:01;;;;;;;17.63;15.15;;;;;;;16.73;87.44;101333.84;5047393;28;20029;-81
2022/06/27 06:20:27;;;;;;;20.58;16.08;;;;;;;16.74;87.72;101330.19;5047759;28;20120;-81
2022/06/27 06:22:52;;;;;;;19.20;14.90;;;;;;;16.73;87.69;101344.59;5042583;28;20020;-81
2022/06/27 06:25:18;;;;;;;16.85;15.02;;;;;;;16.75;86.80;101356.09;5049079;28;20411;-81
2022/06/27 06:27:44;;;;;;;19.15;15.13;;;;;;;16.77;86.65;101356.84;5058968;28;20032;-81
2022/06/27 06:30:10;;;;;;;17.38;15.13;;;;;;;16.74;87.17;101354.38;5065988;28;20036;-81
2022/06/27 06:32:35;;;;;;;21.77;15.90;;;;;;;16.76;86.92;101360.53;5059727;28;20554;-81
2022/06/27 06:35:02;;;;;;;18.42;15.20;;;;;;;16.81;86.67;101357.50;5068181;28;20025;-80
2022/06/27 06:37:29;;;;;;;19.30;15.25;;;;;;;16.84;86.42;101352.75;5065358;28;20025;-81
2022/06/27 06:39:54;;;;;;;17.90;15.60;;;;;;;16.88;86.99;101331.91;5051481;28;20029;-80
2022/06/27 06:42:20;;;;;;;19.25;15.45;;;;;;;16.90;86.41;101328.16;5048135;28;21736;-80
2022/06/27 06:44:46;;;;;;;19.83;16.08;;;;;;;16.87;86.59;101317.59;5042561;28;20026;-81
2022/06/27 06:47:14;;;;;;;21.20;14.63;;;;;;;16.97;86.63;101322.34;5049063;28;20033;-81
2022/06/27 06:49:44;;;;;;;20.27;16.30;;;;;;;16.97;86.69;101312.47;5047300;28;20025;-81
2022/06/27 06:52:09;;;;;;;18.30;15.52;;;;;;;17.03;86.70;101303.94;5047695;28;20470;-81
2022/06/27 06:54:36;;;;;;;19.27;15.73;;;;;;;17.10;86.60;101285.56;5049434;28;20047;-81
2022/06/27 06:57:02;;;;;;;18.70;15.65;;;;;;;17.12;85.58;101278.22;5047230;28;20029;-81
2022/06/27 06:59:27;;;;;;;20.35;16.13;;;;;;;17.19;86.13;101271.44;5041978;28;20120;-82
2022/06/27 07:01:53;;;;;;;22.00;17.25;;;;;;;17.27;85.07;101287.03;5045691;28;20040;-81
2022/06/27 07:04:19;;;;;;;20.90;16.05;;;;;;;17.36;84.59;101307.91;5042710;28;20026;-82
2022/06/27 07:06:45;;;;;;;24.13;16.95;;;;;;;17.52;84.77;101307.66;5045693;28;20100;-82
2022/06/27 07:09:11;;;;;;;18.98;16.52;;;;;;;17.63;83.51;101305.03;5047185;28;20505;-82
2022/06/27 07:11:38;;;;;;;22.92;16.58;;;;;;;17.77;82.96;101280.69;5042637;28;20025;-82
2022/06/27 07:14:04;;;;;;;20.08;16.67;;;;;;;17.87;82.74;101265.56;5046810;28;20025;-82
2022/06/27 07:16:30;;;;;;;23.52;17.30;;;;;;;17.92;82.97;101273.28;5034195;28;20028;-82
2022/06/27 07:18:56;;;;;;;19.27;16.83;;;;;;;18.02;81.48;101316.56;5045397;28;20052;-82
2022/06/27 07:21:23;;;;;;;19.83;15.73;;;;;;;18.10;81.17;101327.59;5044806;28;20025;-82
2022/06/27 07:23:50;;;;;;;29.40;19.05;;;;;;;18.22;81.25;101324.00;5035223;28;20501;-82
2022/06/27 07:26:17;;;;;;;21.52;17.70;;;;;;;18.46;80.04;101331.19;5044123;28;20029;-82
2022/06/27 07:28:43;;;;;;;24.13;18.75;;;;;;;18.71;79.37;101339.16;5046916;28;20063;-82
2022/06/27 07:31:09;;;;;;;21.50;16.48;;;;;;;19.00;78.18;101344.13;5047148;28;20475;-82
2022/06/27 07:33:44;;;;;;;21.05;16.48;;;;;;;19.21;77.21;101338.88;5045082;28;20128;-81
2022/06/27 07:36:14;;;;;;;20.35;15.82;;;;;;;19.42;76.70;101296.66;5047008;28;20021;-81
2022/06/27 07:38:41;;;;;;;20.10;15.18;;;;;;;19.63;75.82;101302.19;5043614;28;20162;-81
2022/06/27 07:41:08;;;;;;;18.20;14.80;;;;;;;19.77;73.15;101330.75;5049189;28;20025;-82
2022/06/27 07:43:35;;;;;;;17.75;15.05;;;;;;;19.98;73.05;101322.72;5042843;28;20082;-82
2022/06/27 07:46:03;;;;;;;18.00;15.23;;;;;;;20.09;72.42;101326.25;5043068;28;21977;-82
2022/06/27 07:48:29;;;;;;;18.65;14.90;;;;;;;20.32;71.57;101332.47;5043957;28;20071;-82
2022/06/27 07:50:56;;;;;;;16.67;14.18;;;;;;;20.30;71.43;101345.22;5047497;28;20049;-82
2022/06/27 07:53:22;;;;;;;18.77;14.73;;;;;;;20.12;71.43;101344.06;5048322;28;20024;-82
2022/06/27 07:55:55;;;;;;;20.50;16.20;;;;;;;19.89;71.49;101360.31;5040733;28;20025;-81
2022/06/27 07:58:35;;;;;;;20.33;14.50;;;;;;;19.72;73.21;101354.59;5040520;28;20137;-81
2022/06/27 08:01:15;;;;;;;21.42;17.10;;;;;;;19.69;74.63;101363.81;5045878;28;20033;-82
2022/06/27 08:03:44;;;;;;;20.33;14.73;;;;;;;19.62;72.83;101376.94;5046149;28;20025;-82
2022/06/27 08:06:28;;;;;;;16.67;12.77;;;;;;;19.68;72.49;101359.38;5047829;28;20099;-82
2022/06/27 08:08:57;;;;;;;12.13;10.43;;;;;;;19.81;70.46;101362.78;5040056;28;20080;-82
2022/06/27 08:11:25;;;;;;;14.77;11.95;;;;;;;20.07;69.29;101384.13;5048262;28;20298;-82
2022/06/27 08:13:53;;;;;;;13.18;11.45;;;;;;;20.23;67.31;101387.28;5047712;28;20040;-82
2022/06/27 08:16:20;;;;;;;12.98;10.27;;;;;;;20.27;67.37;101366.25;5045616;28;20077;-82
2022/06/27 08:18:47;;;;;;;13.88;10.65;;;;;;;20.22;67.88;101363.94;5046423;28;20099;-82
2022/06/27 08:21:14;;;;;;;14.68;9.55;;;;;;;20.13;67.53;101362.00;5044928;28;20390;-82
2022/06/27 08:23:40;;;;;;;12.07;8.70;;;;;;;20.14;65.38;101371.81;5048125;28;20029;-81
2022/06/27 08:26:07;;;;;;;10.88;8.77;;;;;;;20.02;65.68;101378.22;5048673;28;20036;-82
2022/06/27 08:28:37;;;;;;;7.70;6.63;;;;;;;19.84;66.17;101370.66;5042206;28;20032;-81
2022/06/27 08:31:08;;;;;;;9.13;6.03;;;;;;;19.66;65.31;101388.38;5047632;28;20245;-80
2022/06/27 08:33:35;;;;;;;7.32;6.15;;;;;;;19.51;65.62;101394.94;5045440;28;20028;-80
2022/06/27 08:36:02;;;;;;;8.68;7.38;;;;;;;19.40;67.05;101398.53;5045786;28;20057;-81
2022/06/27 08:38:28;;;;;;;9.05;7.05;;;;;;;19.39;67.14;101413.81;5045842;28;20451;-81
2022/06/27 08:40:54;;;;;;;10.23;6.20;;;;;;;19.36;67.92;101402.44;5047794;28;20024;-81
2022/06/27 08:43:20;;;;;;;11.20;7.03;;;;;;;19.29;66.11;101404.75;5047309;28;20122;-81
2022/06/27 08:45:47;;;;;;;9.88;6.40;;;;;;;19.29;67.90;101404.75;5046702;28;20033;-81
2022/06/27 08:48:14;;;;;;;10.63;6.47;;;;;;;19.36;67.78;101406.00;5045454;28;20021;-80
2022/06/27 08:50:41;;;;;;;7.63;6.70;;;;;;;19.42;67.47;101400.09;5045022;28;20438;-81
2022/06/27 08:53:08;;;;;;;10.90;6.75;;;;;;;19.40;67.72;101393.97;5045210;28;20155;-81
2022/06/27 08:55:34;;;;;;;7.18;6.35;;;;;;;19.51;67.22;101401.22;5047984;28;20048;-80
2022/06/27 08:58:06;;;;;;;10.88;6.85;;;;;;;19.55;67.10;101402.69;5036170;28;20040;-81
2022/06/27 09:00:34;;;;;;;8.95;6.18;;;;;;;19.59;66.66;101416.81;5046068;28;20659;-81
2022/06/27 09:02:59;;;;;;;10.52;5.97;;;;;;;19.76;67.68;101420.88;5045075;28;20033;-82
2022/06/27 09:05:27;;;;;;;7.43;6.45;;;;;;;19.97;64.82;101437.19;5047332;28;20388;-81
2022/06/27 09:08:00;;;;;;;7.90;5.82;;;;;;;20.14;64.47;101426.72;5036023;28;20052;-81
2022/06/27 09:10:33;;;;;;;9.93;6.30;;;;;;;20.33;63.82;101430.63;5034576;28;20514;-82
2022/06/27 09:13:13;;;;;;;9.13;6.00;;;;;;;20.50;63.14;101429.25;5037780;28;20111;-81
2022/06/27 09:15:41;;;;;;;6.90;5.95;;;;;;;20.63;63.36;101422.69;5048303;28;20074;-81
2022/06/27 09:18:09;;;;;;;12.85;6.72;;;;;;;20.85;61.71;101412.75;5046413;28;20025;-82
2022/06/27 09:20:47;;;;;;;8.95;5.60;;;;;;;21.04;62.41;101401.22;5046791;28;20080;-82
2022/06/27 09:23:31;;;;;;;7.35;6.00;;;;;;;21.35;62.48;101405.72;5049028;28;20052;-82
2022/06/27 09:26:02;;;;;;;7.65;5.88;;;;;;;21.38;60.71;101410.88;5045619;28;20029;-81
2022/06/27 09:28:41;;;;;;;9.73;6.13;;;;;;;21.54;60.73;101423.06;5035306;28;20055;-81
2022/06/27 09:31:13;;;;;;;6.75;6.05;;;;;;;21.61;60.06;101426.94;5049981;28;20037;-81
2022/06/27 09:33:40;;;;;;;8.80;6.38;;;;;;;21.60;60.35;101423.38;5044272;28;20382;-81
2022/06/27 09:36:14;;;;;;;11.48;7.47;;;;;;;21.61;60.35;101422.41;5049796;28;20044;-81
2022/06/27 09:38:41;;;;;;;8.27;7.10;;;;;;;21.64;59.79;101422.09;5046824;28;20025;-82
2022/06/27 09:41:10;;;;;;;8.63;6.57;;;;;;;21.70;58.48;101417.16;5048531;28;20025;-82
2022/06/27 09:43:39;;;;;;;10.77;7.65;;;;;;;22.09;60.18;101401.88;5049681;28;20105;-81
2022/06/27 09:46:05;;;;;;;9.50;8.10;;;;;;;22.65;58.67;101411.25;5046024;28;20462;-82
2022/06/27 09:48:31;;;;;;;13.35;8.90;;;;;;;23.04;57.31;101412.13;5036799;28;20071;-82
2022/06/27 09:50:58;;;;;;;11.68;8.45;;;;;;;23.35;56.47;101418.19;5049179;28;20052;-83
2022/06/27 09:53:27;;;;;;;11.75;7.95;;;;;;;23.75;55.24;101408.94;5046920;28;20032;-82
2022/06/27 09:55:53;;;;;;;14.43;7.70;;;;;;;23.81;55.09;101411.03;5050699;28;20068;-82
2022/06/27 09:58:20;;;;;;;9.32;7.75;;;;;;;23.64;54.77;101423.53;5058990;28;20063;-81
2022/06/27 10:00:47;;;;;;;11.40;7.03;;;;;;;23.36;56.37;101417.16;5071369;28;20036;-81
2022/06/27 10:03:12;;;;;;;8.40;7.32;;;;;;;23.19;55.82;101407.06;5064673;28;20442;-81
2022/06/27 10:05:40;;;;;;;9.18;6.90;;;;;;;23.01;55.43;101404.25;5061533;28;20075;-82
2022/06/27 10:08:05;;;;;;;11.18;7.22;;;;;;;23.10;57.01;101396.09;5070766;28;20112;-81
2022/06/27 10:10:51;;;;;;;9.75;7.65;;;;;;;23.44;55.39;101400.13;5057847;28;20079;-82
2022/06/27 10:13:17;;;;;;;8.52;7.20;;;;;;;23.66;53.73;101396.22;5044026;28;20458;-82
2022/06/27 10:15:43;;;;;;;8.90;7.82;;;;;;;23.91;51.75;101398.28;5046533;28;20044;-82
2022/06/27 10:18:08;;;;;;;14.68;7.30;;;;;;;24.15;52.63;101400.41;5048154;28;20028;-82
2022/06/27 10:20:38;;;;;;;10.20;6.68;;;;;;;24.12;50.75;101389.84;5045845;28;20502;-82
2022/06/27 10:23:04;;;;;;;9.23;6.45;;;;;;;24.23;50.97;101396.91;5045394;28;20051;-81
2022/06/27 10:25:29;;;;;;;9.57;6.90;;;;;;;24.23;50.95;101392.31;5045674;28;20036;-81
2022/06/27 10:28:14;;;;;;;9.05;7.35;;;;;;;24.10;53.45;101386.41;5049709;28;20807;-81
2022/06/27 10:30:51;;;;;;;10.82;8.02;;;;;;;23.80;53.13;101384.88;5047542;28;20143;-81
2022/06/27 10:33:25;;;;;;;11.30;7.88;;;;;;;23.60;53.87;101390.34;5050574;28;20049;-83
2022/06/27 10:35:54;;;;;;;9.88;8.10;;;;;;;23.43;53.78;101398.44;5047161;28;20059;-81
2022/06/27 10:38:26;;;;;;;9.52;7.07;;;;;;;23.31;54.49;101401.31;5032540;28;20053;-82
2022/06/27 10:40:53;;;;;;;10.23;7.20;;;;;;;23.52;54.30;101394.81;5036784;28;20040;-82
2022/06/27 10:43:36;;;;;;;12.88;7.68;;;;;;;23.76;54.28;101397.06;5042436;28;20041;-80
2022/06/27 10:46:11;;;;;;;8.90;5.60;;;;;;;23.76;51.00;101400.63;5045433;28;20037;-82
2022/06/27 10:48:39;;;;;;;8.65;5.68;;;;;;;23.63;50.98;101399.22;5046797;28;20031;-80
2022/06/27 10:51:31;;;;;;;8.73;5.80;;;;;;;23.49;53.14;101415.00;5050310;28;20367;-81
2022/06/27 10:53:59;;;;;;;8.65;6.30;;;;;;;23.28;53.71;101412.50;5044898;28;20863;-80
2022/06/27 10:56:37;;;;;;;8.95;6.47;;;;;;;23.17;53.99;101401.81;5034877;28;20025;-82
2022/06/27 10:59:04;;;;;;;9.60;6.00;;;;;;;23.01;53.76;101409.69;5042663;28;20036;-81
2022/06/27 11:01:31;;;;;;;7.28;5.75;;;;;;;22.78;53.95;101407.25;5037964;28;20026;-81
2022/06/27 11:03:56;;;;;;;7.32;5.78;;;;;;;22.71;54.87;101416.09;5033112;28;20029;-81
2022/06/27 11:06:22;;;;;;;8.43;5.28;;;;;;;22.82;53.87;101413.22;5032005;28;20549;-81
2022/06/27 11:08:50;;;;;;;7.95;5.05;;;;;;;22.75;51.60;101406.69;5049424;28;20040;-80
2022/06/27 11:11:20;;;;;;;7.68;4.18;;;;;;;22.79;53.80;101408.97;5047486;28;20032;-81
2022/06/27 11:13:48;;;;;;;6.65;4.40;;;;;;;22.88;52.79;101418.09;5044243;28;20510;-81
2022/06/27 11:16:25;;;;;;;7.55;4.63;;;;;;;22.82;53.00;101416.81;5046852;28;20045;-80
2022/06/27 11:18:52;;;;;;;6.90;4.30;;;;;;;23.00;52.30;101408.84;5029803;28;20029;-81